sensor_id;sensor_type;location;lat;lon;timestamp;temperature;humidity
22950;DHT22;11641;51.018;4.474;2022-08-04T00:04:01;25.50;99.90
22950;DHT22;11641;51.018;4.474;2022-08-04T00:06:38;25.50;99.90
22950;DHT22;11641;51.018;4.474;2022-08-04T00:09:19;25.40;99.90
22950;DHT22;11641;51.018;4.474;2022-08-04T00:11:56;25.30;99.90
22950;DHT22;11641;51.018;4.474;2022-08-04T00:14:22;25.10;99.90
22950;DHT22;11641;51.018;4.474;2022-08-04T00:16:52;25.00;99.90
22950;DHT22;11641;51.018;4.474;2022-08-04T00:19:31;25.10;99.90
22950;DHT22;11641;51.018;4.474;2022-08-04T00:22:03;25.00;99.90
22950;DHT22;11641;51.018;4.474;2022-08-04T00:24:31;25.10;99.90
22950;DHT22;11641;51.018;4.474;2022-08-04T00:26:59;25.00;99.90
22950;DHT22;11641;51.018;4.474;2022-08-04T00:29:26;24.90;99.90
22950;DHT22;11641;51.018;4.474;2022-08-04T00:31:55;24.80;99.90
22950;DHT22;11641;51.018;4.474;2022-08-04T00:34:27;24.80;99.90
22950;DHT22;11641;51.018;4.474;2022-08-04T00:36:56;24.80;99.90
22950;DHT22;11641;51.018;4.474;2022-08-04T00:39:24;24.70;99.90
22950;DHT22;11641;51.018;4.474;2022-08-04T00:42:41;24.70;99.90
22950;DHT22;11641;51.018;4.474;2022-08-04T00:47:55;24.80;99.90
22950;DHT22;11641;51.018;4.474;2022-08-04T00:53:34;24.80;99.90
22950;DHT22;11641;51.018;4.474;2022-08-04T00:56:15;24.60;99.90
22950;DHT22;11641;51.018;4.474;2022-08-04T01:04:19;24.40;99.90
22950;DHT22;11641;51.018;4.474;2022-08-04T01:07:13;24.30;99.90
22950;DHT22;11641;51.018;4.474;2022-08-04T01:18:06;24.10;99.90
22950;DHT22;11641;51.018;4.474;2022-08-04T01:20:34;24.00;99.90
22950;DHT22;11641;51.018;4.474;2022-08-04T01:26:05;23.80;99.90
22950;DHT22;11641;51.018;4.474;2022-08-04T01:29:07;23.80;99.90
22950;DHT22;11641;51.018;4.474;2022-08-04T01:31:56;24.00;99.90
22950;DHT22;11641;51.018;4.474;2022-08-04T01:34:28;23.90;99.90
22950;DHT22;11641;51.018;4.474;2022-08-04T01:39:48;23.60;99.90
22950;DHT22;11641;51.018;4.474;2022-08-04T01:42:17;23.70;99.90
22950;DHT22;11641;51.018;4.474;2022-08-04T01:44:46;23.60;99.90
22950;DHT22;11641;51.018;4.474;2022-08-04T01:47:13;23.60;99.90
22950;DHT22;11641;51.018;4.474;2022-08-04T01:49:48;23.50;99.90
22950;DHT22;11641;51.018;4.474;2022-08-04T01:52:16;23.50;99.90
22950;DHT22;11641;51.018;4.474;2022-08-04T01:54:42;23.50;99.90
22950;DHT22;11641;51.018;4.474;2022-08-04T01:57:11;23.60;99.90
22950;DHT22;11641;51.018;4.474;2022-08-04T01:59:44;23.70;99.90
22950;DHT22;11641;51.018;4.474;2022-08-04T02:02:10;23.70;99.90
22950;DHT22;11641;51.018;4.474;2022-08-04T02:04:36;23.80;99.90
22950;DHT22;11641;51.018;4.474;2022-08-04T02:18:24;23.60;99.90
22950;DHT22;11641;51.018;4.474;2022-08-04T02:21:01;23.70;99.90
22950;DHT22;11641;51.018;4.474;2022-08-04T02:23:37;23.50;99.90
22950;DHT22;11641;51.018;4.474;2022-08-04T02:26:11;23.50;99.90
22950;DHT22;11641;51.018;4.474;2022-08-04T02:36:38;23.30;99.90
22950;DHT22;11641;51.018;4.474;2022-08-04T02:39:25;23.10;99.90
22950;DHT22;11641;51.018;4.474;2022-08-04T02:41:53;23.20;99.90
22950;DHT22;11641;51.018;4.474;2022-08-04T02:44:22;23.30;99.90
22950;DHT22;11641;51.018;4.474;2022-08-04T02:46:51;23.20;99.90
22950;DHT22;11641;51.018;4.474;2022-08-04T02:49:21;23.00;99.90
22950;DHT22;11641;51.018;4.474;2022-08-04T02:51:53;22.90;99.90
22950;DHT22;11641;51.018;4.474;2022-08-04T02:54:33;23.00;99.90
22950;DHT22;11641;51.018;4.474;2022-08-04T02:57:01;23.00;99.90
22950;DHT22;11641;51.018;4.474;2022-08-04T03:02:29;22.90;99.90
22950;DHT22;11641;51.018;4.474;2022-08-04T03:05:09;22.90;99.90
22950;DHT22;11641;51.018;4.474;2022-08-04T03:08:07;23.00;99.90
22950;DHT22;11641;51.018;4.474;2022-08-04T03:28:07;22.80;99.90
22950;DHT22;11641;51.018;4.474;2022-08-04T03:33:57;22.50;99.90
22950;DHT22;11641;51.018;4.474;2022-08-04T03:48:02;22.40;99.90
22950;DHT22;11641;51.018;4.474;2022-08-04T03:51:06;22.50;99.90
22950;DHT22;11641;51.018;4.474;2022-08-04T03:59:36;22.20;99.90
22950;DHT22;11641;51.018;4.474;2022-08-04T04:04:43;22.40;99.90
22950;DHT22;11641;51.018;4.474;2022-08-04T04:07:44;22.40;99.90
22950;DHT22;11641;51.018;4.474;2022-08-04T04:13:02;22.20;99.90
22950;DHT22;11641;51.018;4.474;2022-08-04T04:38:05;22.20;99.90
22950;DHT22;11641;51.018;4.474;2022-08-04T04:43:15;22.50;99.90
22950;DHT22;11641;51.018;4.474;2022-08-04T04:51:22;22.50;99.90
22950;DHT22;11641;51.018;4.474;2022-08-04T05:00:06;22.90;99.90
22950;DHT22;11641;51.018;4.474;2022-08-04T05:13:45;23.20;99.90
22950;DHT22;11641;51.018;4.474;2022-08-04T05:18:53;23.20;99.90
22950;DHT22;11641;51.018;4.474;2022-08-04T05:21:35;23.30;99.90
22950;DHT22;11641;51.018;4.474;2022-08-04T05:24:06;23.20;99.90
22950;DHT22;11641;51.018;4.474;2022-08-04T05:26:38;23.20;99.90
22950;DHT22;11641;51.018;4.474;2022-08-04T05:29:10;23.30;99.90
22950;DHT22;11641;51.018;4.474;2022-08-04T05:31:41;23.30;99.90
22950;DHT22;11641;51.018;4.474;2022-08-04T05:34:33;23.20;99.90
22950;DHT22;11641;51.018;4.474;2022-08-04T05:37:04;23.20;99.90
22950;DHT22;11641;51.018;4.474;2022-08-04T05:39:36;23.20;99.90
22950;DHT22;11641;51.018;4.474;2022-08-04T05:42:04;23.30;99.90
22950;DHT22;11641;51.018;4.474;2022-08-04T05:44:31;23.20;99.90
22950;DHT22;11641;51.018;4.474;2022-08-04T05:47:01;23.20;99.90
22950;DHT22;11641;51.018;4.474;2022-08-04T05:49:28;23.30;99.90
22950;DHT22;11641;51.018;4.474;2022-08-04T05:51:58;23.20;99.90
22950;DHT22;11641;51.018;4.474;2022-08-04T05:54:25;23.20;99.90
22950;DHT22;11641;51.018;4.474;2022-08-04T05:56:57;23.40;99.90
22950;DHT22;11641;51.018;4.474;2022-08-04T05:59:25;23.50;99.90
22950;DHT22;11641;51.018;4.474;2022-08-04T06:01:55;23.60;99.90
22950;DHT22;11641;51.018;4.474;2022-08-04T06:04:34;23.70;99.90
22950;DHT22;11641;51.018;4.474;2022-08-04T06:07:02;23.80;99.90
22950;DHT22;11641;51.018;4.474;2022-08-04T06:09:29;23.80;99.90
22950;DHT22;11641;51.018;4.474;2022-08-04T06:11:57;23.90;99.90
22950;DHT22;11641;51.018;4.474;2022-08-04T06:14:25;24.10;99.90
22950;DHT22;11641;51.018;4.474;2022-08-04T06:16:52;24.20;99.90
22950;DHT22;11641;51.018;4.474;2022-08-04T06:19:20;24.30;99.90
22950;DHT22;11641;51.018;4.474;2022-08-04T06:21:55;24.30;99.90
22950;DHT22;11641;51.018;4.474;2022-08-04T06:24:26;24.20;99.90
22950;DHT22;11641;51.018;4.474;2022-08-04T06:26:56;24.30;99.90
22950;DHT22;11641;51.018;4.474;2022-08-04T06:29:24;24.50;99.90
22950;DHT22;11641;51.018;4.474;2022-08-04T06:32:12;24.70;99.90
22950;DHT22;11641;51.018;4.474;2022-08-04T06:35:00;24.80;99.90
22950;DHT22;11641;51.018;4.474;2022-08-04T06:37:26;24.80;99.90
22950;DHT22;11641;51.018;4.474;2022-08-04T06:39:54;24.40;99.90
22950;DHT22;11641;51.018;4.474;2022-08-04T06:42:24;24.30;99.90
22950;DHT22;11641;51.018;4.474;2022-08-04T06:44:54;24.30;99.90
22950;DHT22;11641;51.018;4.474;2022-08-04T06:47:21;24.10;99.90
22950;DHT22;11641;51.018;4.474;2022-08-04T06:49:50;24.20;99.90
22950;DHT22;11641;51.018;4.474;2022-08-04T06:52:19;24.30;99.90
22950;DHT22;11641;51.018;4.474;2022-08-04T06:54:50;24.00;99.90
22950;DHT22;11641;51.018;4.474;2022-08-04T06:57:19;24.20;99.90
22950;DHT22;11641;51.018;4.474;2022-08-04T06:59:49;24.40;99.90
22950;DHT22;11641;51.018;4.474;2022-08-04T07:02:20;24.70;99.90
22950;DHT22;11641;51.018;4.474;2022-08-04T07:04:49;24.80;99.90
22950;DHT22;11641;51.018;4.474;2022-08-04T07:07:16;24.80;99.90
22950;DHT22;11641;51.018;4.474;2022-08-04T07:09:44;24.80;99.90
22950;DHT22;11641;51.018;4.474;2022-08-04T07:12:13;24.70;99.90
22950;DHT22;11641;51.018;4.474;2022-08-04T07:14:46;24.60;99.90
22950;DHT22;11641;51.018;4.474;2022-08-04T07:17:14;24.60;99.90
22950;DHT22;11641;51.018;4.474;2022-08-04T07:19:40;24.90;99.90
22950;DHT22;11641;51.018;4.474;2022-08-04T07:22:09;24.90;99.90
22950;DHT22;11641;51.018;4.474;2022-08-04T07:24:37;25.60;99.90
22950;DHT22;11641;51.018;4.474;2022-08-04T07:27:04;25.50;99.90
22950;DHT22;11641;51.018;4.474;2022-08-04T07:29:34;25.90;99.90
22950;DHT22;11641;51.018;4.474;2022-08-04T07:32:03;26.00;99.90
22950;DHT22;11641;51.018;4.474;2022-08-04T07:34:32;26.30;99.90
22950;DHT22;11641;51.018;4.474;2022-08-04T07:37:02;26.70;99.90
22950;DHT22;11641;51.018;4.474;2022-08-04T07:39:29;27.10;99.90
22950;DHT22;11641;51.018;4.474;2022-08-04T07:41:59;27.10;99.90
22950;DHT22;11641;51.018;4.474;2022-08-04T07:44:33;27.30;99.90
22950;DHT22;11641;51.018;4.474;2022-08-04T07:47:01;27.10;99.90
22950;DHT22;11641;51.018;4.474;2022-08-04T07:49:27;27.20;99.90
22950;DHT22;11641;51.018;4.474;2022-08-04T07:51:53;27.30;99.90
22950;DHT22;11641;51.018;4.474;2022-08-04T07:54:19;27.60;99.90
22950;DHT22;11641;51.018;4.474;2022-08-04T07:56:46;27.40;99.90
22950;DHT22;11641;51.018;4.474;2022-08-04T07:59:14;27.40;99.90
22950;DHT22;11641;51.018;4.474;2022-08-04T08:01:41;27.40;99.90
22950;DHT22;11641;51.018;4.474;2022-08-04T08:04:09;27.00;99.90
22950;DHT22;11641;51.018;4.474;2022-08-04T08:06:37;27.10;99.90
22950;DHT22;11641;51.018;4.474;2022-08-04T08:09:16;26.90;99.90
22950;DHT22;11641;51.018;4.474;2022-08-04T08:11:47;26.70;99.90
22950;DHT22;11641;51.018;4.474;2022-08-04T08:14:13;26.50;99.90
22950;DHT22;11641;51.018;4.474;2022-08-04T08:16:39;26.50;99.90
22950;DHT22;11641;51.018;4.474;2022-08-04T08:19:05;26.30;99.90
22950;DHT22;11641;51.018;4.474;2022-08-04T08:21:35;26.60;99.90
22950;DHT22;11641;51.018;4.474;2022-08-04T08:24:04;26.70;99.90
22950;DHT22;11641;51.018;4.474;2022-08-04T08:26:30;26.50;99.90
22950;DHT22;11641;51.018;4.474;2022-08-04T08:28:57;26.30;99.90
22950;DHT22;11641;51.018;4.474;2022-08-04T08:31:22;25.60;99.90
22950;DHT22;11641;51.018;4.474;2022-08-04T08:33:51;25.40;99.90
22950;DHT22;11641;51.018;4.474;2022-08-04T08:36:34;25.30;99.90
22950;DHT22;11641;51.018;4.474;2022-08-04T08:39:06;25.10;99.90
22950;DHT22;11641;51.018;4.474;2022-08-04T08:47:42;25.00;99.90
22950;DHT22;11641;51.018;4.474;2022-08-04T09:08:05;24.40;99.90
22950;DHT22;11641;51.018;4.474;2022-08-04T09:10:43;24.50;99.90
22950;DHT22;11641;51.018;4.474;2022-08-04T09:13:20;24.60;99.90
22950;DHT22;11641;51.018;4.474;2022-08-04T09:21:50;24.10;99.90
22950;DHT22;11641;51.018;4.474;2022-08-04T09:24:51;24.20;99.90
22950;DHT22;11641;51.018;4.474;2022-08-04T09:27:19;24.30;99.90
22950;DHT22;11641;51.018;4.474;2022-08-04T09:29:56;24.50;99.90
22950;DHT22;11641;51.018;4.474;2022-08-04T09:32:29;24.30;99.90
22950;DHT22;11641;51.018;4.474;2022-08-04T09:35:39;24.20;99.90
22950;DHT22;11641;51.018;4.474;2022-08-04T09:38:32;24.60;99.90
22950;DHT22;11641;51.018;4.474;2022-08-04T09:46:31;25.50;99.90
22950;DHT22;11641;51.018;4.474;2022-08-04T09:49:04;25.40;99.90
22950;DHT22;11641;51.018;4.474;2022-08-04T10:00:00;24.70;99.90
22950;DHT22;11641;51.018;4.474;2022-08-04T10:02:37;25.00;99.90
22950;DHT22;11641;51.018;4.474;2022-08-04T10:05:10;25.20;99.90
22950;DHT22;11641;51.018;4.474;2022-08-04T10:11:05;24.70;99.90
22950;DHT22;11641;51.018;4.474;2022-08-04T10:13:51;25.10;99.90
22950;DHT22;11641;51.018;4.474;2022-08-04T10:16:55;25.50;99.90
22950;DHT22;11641;51.018;4.474;2022-08-04T10:19:34;25.90;99.90
22950;DHT22;11641;51.018;4.474;2022-08-04T10:22:28;26.10;99.90
22950;DHT22;11641;51.018;4.474;2022-08-04T10:25:24;26.00;99.90
22950;DHT22;11641;51.018;4.474;2022-08-04T10:28:02;25.90;99.90
22950;DHT22;11641;51.018;4.474;2022-08-04T10:30:32;26.10;99.90
22950;DHT22;11641;51.018;4.474;2022-08-04T10:33:17;27.10;99.90
22950;DHT22;11641;51.018;4.474;2022-08-04T10:35:53;28.90;99.90
22950;DHT22;11641;51.018;4.474;2022-08-04T10:38:36;30.80;99.90
22950;DHT22;11641;51.018;4.474;2022-08-04T10:44:09;32.60;99.90
22950;DHT22;11641;51.018;4.474;2022-08-04T10:46:46;34.70;99.90
22950;DHT22;11641;51.018;4.474;2022-08-04T10:49:34;33.80;99.90
22950;DHT22;11641;51.018;4.474;2022-08-04T10:52:17;33.60;99.90
22950;DHT22;11641;51.018;4.474;2022-08-04T10:58:18;32.50;99.90
22950;DHT22;11641;51.018;4.474;2022-08-04T11:00:47;33.50;99.90
22950;DHT22;11641;51.018;4.474;2022-08-04T11:03:40;35.40;99.90
22950;DHT22;11641;51.018;4.474;2022-08-04T11:06:11;36.50;96.10
22950;DHT22;11641;51.018;4.474;2022-08-04T11:08:46;36.10;96.10
22950;DHT22;11641;51.018;4.474;2022-08-04T11:11:36;35.60;95.40
22950;DHT22;11641;51.018;4.474;2022-08-04T11:14:14;35.00;96.30
22950;DHT22;11641;51.018;4.474;2022-08-04T11:16:53;35.50;95.60
22950;DHT22;11641;51.018;4.474;2022-08-04T11:19:55;35.10;96.40
22950;DHT22;11641;51.018;4.474;2022-08-04T11:22:25;36.50;94.80
22950;DHT22;11641;51.018;4.474;2022-08-04T11:25:07;36.70;92.40
22950;DHT22;11641;51.018;4.474;2022-08-04T11:30:16;34.40;95.10
22950;DHT22;11641;51.018;4.474;2022-08-04T11:41:16;31.20;99.90
22950;DHT22;11641;51.018;4.474;2022-08-04T11:43:56;30.40;99.90
22950;DHT22;11641;51.018;4.474;2022-08-04T11:46:41;30.20;99.90
22950;DHT22;11641;51.018;4.474;2022-08-04T11:51:55;30.60;99.90
22950;DHT22;11641;51.018;4.474;2022-08-04T11:54:22;31.00;99.90
22950;DHT22;11641;51.018;4.474;2022-08-04T11:56:54;32.40;99.90
22950;DHT22;11641;51.018;4.474;2022-08-04T11:59:21;33.90;99.90
22950;DHT22;11641;51.018;4.474;2022-08-04T12:04:49;36.60;94.00
22950;DHT22;11641;51.018;4.474;2022-08-04T12:09:57;38.00;88.30
22950;DHT22;11641;51.018;4.474;2022-08-04T12:12:53;39.00;84.80
22950;DHT22;11641;51.018;4.474;2022-08-04T12:15:26;40.30;78.90
22950;DHT22;11641;51.018;4.474;2022-08-04T12:20:56;41.50;69.20
22950;DHT22;11641;51.018;4.474;2022-08-04T12:23:29;42.00;65.80
22950;DHT22;11641;51.018;4.474;2022-08-04T12:26:01;43.10;63.90
22950;DHT22;11641;51.018;4.474;2022-08-04T12:28:36;43.60;60.70
22950;DHT22;11641;51.018;4.474;2022-08-04T12:31:12;43.90;60.40
22950;DHT22;11641;51.018;4.474;2022-08-04T12:33:50;43.60;59.60
22950;DHT22;11641;51.018;4.474;2022-08-04T12:39:17;43.30;60.00
22950;DHT22;11641;51.018;4.474;2022-08-04T12:42:08;44.30;57.20
22950;DHT22;11641;51.018;4.474;2022-08-04T12:44:40;44.00;55.80
22950;DHT22;11641;51.018;4.474;2022-08-04T12:47:10;43.70;56.00
22950;DHT22;11641;51.018;4.474;2022-08-04T12:49:38;45.60;54.00
22950;DHT22;11641;51.018;4.474;2022-08-04T12:52:09;46.50;51.80
22950;DHT22;11641;51.018;4.474;2022-08-04T12:54:36;47.00;51.50
22950;DHT22;11641;51.018;4.474;2022-08-04T12:57:05;46.80;51.20
22950;DHT22;11641;51.018;4.474;2022-08-04T12:59:43;47.00;49.60
22950;DHT22;11641;51.018;4.474;2022-08-04T13:02:22;46.90;49.90
22950;DHT22;11641;51.018;4.474;2022-08-04T13:04:49;45.70;49.60
22950;DHT22;11641;51.018;4.474;2022-08-04T13:07:20;45.50;50.00
22950;DHT22;11641;51.018;4.474;2022-08-04T13:09:53;46.20;49.70
22950;DHT22;11641;51.018;4.474;2022-08-04T13:12:25;44.80;51.30
22950;DHT22;11641;51.018;4.474;2022-08-04T13:15:19;44.20;52.60
22950;DHT22;11641;51.018;4.474;2022-08-04T13:17:59;42.80;53.20
22950;DHT22;11641;51.018;4.474;2022-08-04T13:20:31;44.20;53.10
22950;DHT22;11641;51.018;4.474;2022-08-04T13:25:34;47.80;48.40
22950;DHT22;11641;51.018;4.474;2022-08-04T13:28:05;49.10;45.70
22950;DHT22;11641;51.018;4.474;2022-08-04T13:30:33;48.90;45.80
22950;DHT22;11641;51.018;4.474;2022-08-04T13:33:03;47.40;47.50
22950;DHT22;11641;51.018;4.474;2022-08-04T13:35:30;46.40;48.90
22950;DHT22;11641;51.018;4.474;2022-08-04T13:37:58;44.90;49.60
22950;DHT22;11641;51.018;4.474;2022-08-04T13:40:27;42.60;53.30
22950;DHT22;11641;51.018;4.474;2022-08-04T13:42:55;40.80;55.70
22950;DHT22;11641;51.018;4.474;2022-08-04T13:45:25;40.90;56.30
22950;DHT22;11641;51.018;4.474;2022-08-04T13:47:58;41.40;56.20
22950;DHT22;11641;51.018;4.474;2022-08-04T13:50:29;42.00;54.10
22950;DHT22;11641;51.018;4.474;2022-08-04T13:52:59;41.90;54.70
22950;DHT22;11641;51.018;4.474;2022-08-04T13:58:04;45.70;50.60
22950;DHT22;11641;51.018;4.474;2022-08-04T14:00:45;46.30;48.60
22950;DHT22;11641;51.018;4.474;2022-08-04T14:03:21;46.70;48.10
22950;DHT22;11641;51.018;4.474;2022-08-04T14:06:23;46.40;47.90
22950;DHT22;11641;51.018;4.474;2022-08-04T14:09:09;45.20;49.60
22950;DHT22;11641;51.018;4.474;2022-08-04T14:11:51;41.60;53.40
22950;DHT22;11641;51.018;4.474;2022-08-04T14:14:29;39.40;57.10
22950;DHT22;11641;51.018;4.474;2022-08-04T14:19:26;37.90;60.50
22950;DHT22;11641;51.018;4.474;2022-08-04T14:21:52;37.40;62.00
22950;DHT22;11641;51.018;4.474;2022-08-04T14:24:27;37.20;61.80
22950;DHT22;11641;51.018;4.474;2022-08-04T14:27:00;37.30;63.60
22950;DHT22;11641;51.018;4.474;2022-08-04T14:29:37;38.80;60.40
22950;DHT22;11641;51.018;4.474;2022-08-04T14:32:06;41.60;56.40
22950;DHT22;11641;51.018;4.474;2022-08-04T14:34:38;44.20;52.60
22950;DHT22;11641;51.018;4.474;2022-08-04T14:37:09;46.30;48.60
22950;DHT22;11641;51.018;4.474;2022-08-04T14:39:37;46.70;48.20
22950;DHT22;11641;51.018;4.474;2022-08-04T14:42:03;47.40;46.70
22950;DHT22;11641;51.018;4.474;2022-08-04T14:44:31;45.70;47.40
22950;DHT22;11641;51.018;4.474;2022-08-04T14:47:27;44.00;49.80
22950;DHT22;11641;51.018;4.474;2022-08-04T14:50:05;41.70;52.90
22950;DHT22;11641;51.018;4.474;2022-08-04T14:52:33;40.10;55.60
22950;DHT22;11641;51.018;4.474;2022-08-04T14:55:15;38.80;58.00
22950;DHT22;11641;51.018;4.474;2022-08-04T14:57:42;39.30;57.70
22950;DHT22;11641;51.018;4.474;2022-08-04T15:00:09;39.20;58.00
22950;DHT22;11641;51.018;4.474;2022-08-04T15:02:38;39.90;56.50
22950;DHT22;11641;51.018;4.474;2022-08-04T15:05:09;39.90;56.40
22950;DHT22;11641;51.018;4.474;2022-08-04T15:07:40;40.10;56.00
22950;DHT22;11641;51.018;4.474;2022-08-04T15:10:09;38.90;58.00
22950;DHT22;11641;51.018;4.474;2022-08-04T15:12:35;39.10;57.80
22950;DHT22;11641;51.018;4.474;2022-08-04T15:15:01;40.00;56.60
22950;DHT22;11641;51.018;4.474;2022-08-04T15:17:30;41.70;53.50
22950;DHT22;11641;51.018;4.474;2022-08-04T15:19:56;43.50;51.20
22950;DHT22;11641;51.018;4.474;2022-08-04T15:22:23;44.40;49.20
22950;DHT22;11641;51.018;4.474;2022-08-04T15:24:55;43.40;50.10
22950;DHT22;11641;51.018;4.474;2022-08-04T15:27:26;43.30;50.20
22950;DHT22;11641;51.018;4.474;2022-08-04T15:29:56;42.00;51.40
22950;DHT22;11641;51.018;4.474;2022-08-04T15:32:23;41.10;52.80
22950;DHT22;11641;51.018;4.474;2022-08-04T15:34:52;40.30;54.40
22950;DHT22;11641;51.018;4.474;2022-08-04T15:40:18;41.60;52.30
22950;DHT22;11641;51.018;4.474;2022-08-04T15:45:21;42.10;52.60
22950;DHT22;11641;51.018;4.474;2022-08-04T15:50:30;42.00;52.70
22950;DHT22;11641;51.018;4.474;2022-08-04T15:53:04;42.40;51.70
22950;DHT22;11641;51.018;4.474;2022-08-04T15:55:42;42.60;50.90
22950;DHT22;11641;51.018;4.474;2022-08-04T15:58:11;41.70;52.00
22950;DHT22;11641;51.018;4.474;2022-08-04T16:22:01;36.70;61.60
22950;DHT22;11641;51.018;4.474;2022-08-04T16:24:29;37.50;61.00
22950;DHT22;11641;51.018;4.474;2022-08-04T16:27:00;38.30;58.90
22950;DHT22;11641;51.018;4.474;2022-08-04T16:29:37;38.90;58.30
22950;DHT22;11641;51.018;4.474;2022-08-04T16:34:34;40.10;55.70
22950;DHT22;11641;51.018;4.474;2022-08-04T16:37:08;40.00;55.40
22950;DHT22;11641;51.018;4.474;2022-08-04T16:39:37;40.20;55.20
22950;DHT22;11641;51.018;4.474;2022-08-04T16:44:59;37.50;58.90
22950;DHT22;11641;51.018;4.474;2022-08-04T16:50:21;36.00;61.90
22950;DHT22;11641;51.018;4.474;2022-08-04T16:52:52;36.00;62.00
22950;DHT22;11641;51.018;4.474;2022-08-04T16:55:27;35.30;63.70
22950;DHT22;11641;51.018;4.474;2022-08-04T16:57:56;35.10;64.50
22950;DHT22;11641;51.018;4.474;2022-08-04T17:00:36;35.00;65.10
22950;DHT22;11641;51.018;4.474;2022-08-04T17:03:06;34.90;65.10
22950;DHT22;11641;51.018;4.474;2022-08-04T17:05:37;34.40;66.20
22950;DHT22;11641;51.018;4.474;2022-08-04T17:08:04;34.00;67.70
22950;DHT22;11641;51.018;4.474;2022-08-04T17:10:43;33.90;68.10
22950;DHT22;11641;51.018;4.474;2022-08-04T17:13:29;33.60;68.30
22950;DHT22;11641;51.018;4.474;2022-08-04T17:15:59;33.40;69.40
22950;DHT22;11641;51.018;4.474;2022-08-04T17:18:31;33.00;70.20
22950;DHT22;11641;51.018;4.474;2022-08-04T17:21:01;32.90;71.60
22950;DHT22;11641;51.018;4.474;2022-08-04T17:23:32;32.70;71.40
22950;DHT22;11641;51.018;4.474;2022-08-04T17:26:06;31.80;73.70
22950;DHT22;11641;51.018;4.474;2022-08-04T17:28:33;31.30;74.80
22950;DHT22;11641;51.018;4.474;2022-08-04T17:31:05;30.90;76.50
22950;DHT22;11641;51.018;4.474;2022-08-04T17:33:33;30.00;78.70
22950;DHT22;11641;51.018;4.474;2022-08-04T17:36:00;29.20;82.20
22950;DHT22;11641;51.018;4.474;2022-08-04T17:38:32;29.00;83.70
22950;DHT22;11641;51.018;4.474;2022-08-04T17:41:04;28.40;86.20
22950;DHT22;11641;51.018;4.474;2022-08-04T17:51:30;27.40;92.10
22950;DHT22;11641;51.018;4.474;2022-08-04T17:54:00;27.20;93.40
22950;DHT22;11641;51.018;4.474;2022-08-04T17:56:38;27.20;94.30
22950;DHT22;11641;51.018;4.474;2022-08-04T17:59:18;27.10;94.90
22950;DHT22;11641;51.018;4.474;2022-08-04T18:01:52;27.20;95.40
22950;DHT22;11641;51.018;4.474;2022-08-04T18:10:01;26.50;98.10
22950;DHT22;11641;51.018;4.474;2022-08-04T18:12:32;26.10;99.40
22950;DHT22;11641;51.018;4.474;2022-08-04T18:15:03;26.10;99.90
22950;DHT22;11641;51.018;4.474;2022-08-04T18:17:40;26.00;99.90
22950;DHT22;11641;51.018;4.474;2022-08-04T18:20:15;25.90;99.90
22950;DHT22;11641;51.018;4.474;2022-08-04T18:22:44;25.80;99.90
22950;DHT22;11641;51.018;4.474;2022-08-04T18:25:12;25.70;99.90
22950;DHT22;11641;51.018;4.474;2022-08-04T18:27:48;25.70;99.90
22950;DHT22;11641;51.018;4.474;2022-08-04T18:30:15;25.50;99.90
22950;DHT22;11641;51.018;4.474;2022-08-04T18:32:41;25.50;99.90
22950;DHT22;11641;51.018;4.474;2022-08-04T18:35:07;25.30;99.90
22950;DHT22;11641;51.018;4.474;2022-08-04T18:37:36;25.30;99.90
22950;DHT22;11641;51.018;4.474;2022-08-04T18:40:06;25.30;99.90
22950;DHT22;11641;51.018;4.474;2022-08-04T18:42:33;25.20;99.90
22950;DHT22;11641;51.018;4.474;2022-08-04T18:44:59;25.00;99.90
22950;DHT22;11641;51.018;4.474;2022-08-04T18:47:25;24.80;99.90
22950;DHT22;11641;51.018;4.474;2022-08-04T18:49:51;24.80;99.90
22950;DHT22;11641;51.018;4.474;2022-08-04T18:52:17;24.70;99.90
22950;DHT22;11641;51.018;4.474;2022-08-04T18:54:42;24.60;99.90
22950;DHT22;11641;51.018;4.474;2022-08-04T18:57:24;24.50;99.90
22950;DHT22;11641;51.018;4.474;2022-08-04T18:59:56;24.50;99.90
22950;DHT22;11641;51.018;4.474;2022-08-04T19:02:22;24.60;99.90
22950;DHT22;11641;51.018;4.474;2022-08-04T19:04:48;24.50;99.90
22950;DHT22;11641;51.018;4.474;2022-08-04T19:07:15;24.70;99.90
22950;DHT22;11641;51.018;4.474;2022-08-04T19:09:43;24.80;99.90
22950;DHT22;11641;51.018;4.474;2022-08-04T19:12:09;24.90;99.90
22950;DHT22;11641;51.018;4.474;2022-08-04T19:14:39;25.00;99.90
22950;DHT22;11641;51.018;4.474;2022-08-04T19:17:05;25.00;99.90
22950;DHT22;11641;51.018;4.474;2022-08-04T19:19:31;24.90;99.90
22950;DHT22;11641;51.018;4.474;2022-08-04T19:21:57;24.80;99.90
22950;DHT22;11641;51.018;4.474;2022-08-04T19:24:25;24.60;99.90
22950;DHT22;11641;51.018;4.474;2022-08-04T19:26:52;24.40;99.90
22950;DHT22;11641;51.018;4.474;2022-08-04T19:29:17;24.50;99.90
22950;DHT22;11641;51.018;4.474;2022-08-04T19:31:44;24.50;99.90
22950;DHT22;11641;51.018;4.474;2022-08-04T19:34:16;24.40;99.90
22950;DHT22;11641;51.018;4.474;2022-08-04T19:36:44;24.40;99.90
22950;DHT22;11641;51.018;4.474;2022-08-04T19:39:12;24.30;99.90
22950;DHT22;11641;51.018;4.474;2022-08-04T19:41:41;24.20;99.90
22950;DHT22;11641;51.018;4.474;2022-08-04T19:44:06;24.20;99.90
22950;DHT22;11641;51.018;4.474;2022-08-04T19:46:46;24.20;99.90
22950;DHT22;11641;51.018;4.474;2022-08-04T19:49:13;24.20;99.90
22950;DHT22;11641;51.018;4.474;2022-08-04T19:51:39;24.10;99.90
22950;DHT22;11641;51.018;4.474;2022-08-04T19:54:05;24.00;99.90
22950;DHT22;11641;51.018;4.474;2022-08-04T19:56:37;23.80;99.90
22950;DHT22;11641;51.018;4.474;2022-08-04T19:59:05;23.70;99.90
22950;DHT22;11641;51.018;4.474;2022-08-04T20:01:35;23.60;99.90
22950;DHT22;11641;51.018;4.474;2022-08-04T20:04:04;23.50;99.90
22950;DHT22;11641;51.018;4.474;2022-08-04T20:06:30;23.50;99.90
22950;DHT22;11641;51.018;4.474;2022-08-04T20:08:58;23.50;99.90
22950;DHT22;11641;51.018;4.474;2022-08-04T20:11:24;23.40;99.90
22950;DHT22;11641;51.018;4.474;2022-08-04T20:13:53;23.40;99.90
22950;DHT22;11641;51.018;4.474;2022-08-04T20:16:18;23.20;99.90
22950;DHT22;11641;51.018;4.474;2022-08-04T20:18:44;23.20;99.90
22950;DHT22;11641;51.018;4.474;2022-08-04T20:21:10;23.10;99.90
22950;DHT22;11641;51.018;4.474;2022-08-04T20:23:36;23.00;99.90
22950;DHT22;11641;51.018;4.474;2022-08-04T20:26:02;22.80;99.90
22950;DHT22;11641;51.018;4.474;2022-08-04T20:28:28;22.60;99.90
22950;DHT22;11641;51.018;4.474;2022-08-04T20:30:56;22.50;99.90
22950;DHT22;11641;51.018;4.474;2022-08-04T20:33:25;22.60;99.90
22950;DHT22;11641;51.018;4.474;2022-08-04T20:35:51;22.50;99.90
22950;DHT22;11641;51.018;4.474;2022-08-04T20:38:20;22.60;99.90
22950;DHT22;11641;51.018;4.474;2022-08-04T20:40:45;22.70;99.90
22950;DHT22;11641;51.018;4.474;2022-08-04T20:43:12;22.70;99.90
22950;DHT22;11641;51.018;4.474;2022-08-04T20:45:37;22.60;99.90